Pagrindinis puslapis
METAR-TAF:

METAR-TAF

Oro uostai :

Bonairė, Nyderlandų Antilai

platuma: 12-09N, ilguma: 068-17W, Aukštis: 6 m

Dabartinis oras

Ataskaita buvo paskelbta 36 minutes, ne 21:55 UTC
Vėjas 18 kt iš Rytų/Šiaurės Rytų
Temperatūra 29°C
Drėgmė 74%
Slėgis 1012 hPa
Matomumas 10 km arba daugiau

METAR: TNCB 052155Z AUTO 07018KT 9999 FEW016/// 29/24 Q1012

Laikas: 18:31 (22:31 UTC)

Prognozė

Ataskaita buvo paskelbta 5 valandos ir 12 minutes, ne 17:19 UTC
Prognozė galioja nuo 05 metu 18 UTC su 06 metu 24 UTC
Vėjas 17 kt iš Rytų
Matomumas 10 km arba daugiau
Išsisklaidę debesys ne aukštis 2000 ft
Tikimybė 30% :
Laikinai
nuo 06 metu 09 UTC su 06 metu 12 UTC
Matomumas: 6000 m
Išsisklaidę debesys ne aukštis 1800 ft, Liūtiniai kamuoliniai debesys.
Su prošvaistėmis ne aukštis 2000 ft
lietus

TAF: TNCB 051719Z 0518/0624 09017KT 9999 SCT020 PROB30 TEMPO 0609/0612 6000 SHRA SCT018CB BKN020

Orai ataskaitas ir orų prognozės (METAR, TAF).

turimą stotys yra geltonos ir raudonos taškus žemėlapyje.

Perkelti pele per norėdami pamatyti stoties vardą.

Tada spustelėkite, norėdami matyti oro stebėjimo ir prognozės.

Norėdami pakeisti žemėlapį: spustelėkite ant žalios mygtukų su juodo kryžiaus žemyn,; žalią mygtuką su brūkšneliu, jei norite nutolinti; arba žalių rodyklių gretimoms žemėlapius.


METAR-TAF: